createdAt,value
2022-11-22T00:02:42.948Z,67.29
2022-11-22T00:05:30.511Z,67.12
2022-11-22T00:08:18.301Z,66.97
2022-11-22T00:11:05.959Z,67.17
2022-11-22T00:13:53.591Z,67.18
2022-11-22T00:16:41.246Z,66.95
2022-11-22T00:19:29.175Z,67.04
2022-11-22T00:22:16.971Z,66.91
2022-11-22T00:25:05.736Z,66.95
2022-11-22T00:27:53.891Z,66.80
2022-11-22T00:30:41.537Z,66.79
2022-11-22T00:33:29.154Z,66.83
2022-11-22T00:36:17.325Z,67.19
2022-11-22T00:39:05.094Z,66.85
2022-11-22T00:41:52.714Z,66.82
2022-11-22T00:44:40.339Z,66.97
2022-11-22T00:47:27.950Z,67.03
2022-11-22T00:50:15.879Z,66.94
2022-11-22T00:53:03.542Z,67.00
2022-11-22T00:55:51.204Z,67.02
2022-11-22T00:58:38.780Z,66.82
2022-11-22T01:01:26.441Z,66.80
2022-11-22T01:04:14.231Z,67.02
2022-11-22T01:07:03.115Z,67.16
2022-11-22T01:09:50.735Z,67.07
2022-11-22T01:12:38.318Z,67.01
2022-11-22T01:15:25.967Z,67.06
2022-11-22T01:18:13.576Z,67.01
2022-11-22T01:21:01.625Z,67.10
2022-11-22T01:23:49.298Z,67.00
2022-11-22T01:26:37.113Z,66.81
2022-11-22T01:29:24.839Z,67.01
2022-11-22T01:32:12.531Z,67.14
2022-11-22T01:35:00.188Z,67.07
2022-11-22T01:37:47.875Z,67.27
2022-11-22T01:40:35.900Z,67.36
2022-11-22T01:43:28.473Z,67.12
2022-11-22T01:46:39.680Z,67.11
2022-11-22T01:49:48.163Z,67.09
2022-11-22T01:52:35.827Z,67.03
2022-11-22T01:55:23.996Z,67.14
2022-11-22T01:58:14.713Z,67.06
2022-11-22T02:01:02.837Z,67.16
2022-11-22T02:03:53.028Z,67.20
2022-11-22T02:06:43.671Z,67.25
2022-11-22T02:09:33.396Z,67.40
2022-11-22T02:12:26.595Z,67.33
2022-11-22T02:15:14.589Z,67.48
2022-11-22T02:18:02.212Z,67.49
2022-11-22T02:20:50.117Z,67.56
2022-11-22T02:23:43.154Z,67.60
2022-11-22T02:26:32.172Z,67.52
2022-11-22T02:29:20.631Z,67.49
2022-11-22T02:32:08.237Z,67.62
2022-11-22T02:34:55.913Z,67.56
2022-11-22T02:37:43.637Z,67.66
2022-11-22T02:40:43.005Z,67.45
2022-11-22T02:43:35.035Z,67.79
2022-11-22T02:46:23.716Z,67.66
2022-11-22T02:49:11.289Z,67.61
2022-11-22T02:51:59.114Z,67.73
2022-11-22T02:54:46.923Z,67.87
2022-11-22T02:57:34.517Z,67.70
2022-11-22T03:00:22.794Z,67.95
2022-11-22T03:03:10.588Z,67.89
2022-11-22T03:06:16.764Z,67.91
2022-11-22T03:09:04.375Z,67.89
2022-11-22T03:11:53.086Z,67.94
2022-11-22T03:14:40.743Z,67.93
2022-11-22T03:17:28.375Z,67.87
2022-11-22T03:20:16.069Z,68.10
2022-11-22T03:23:03.730Z,67.99
2022-11-22T03:25:51.365Z,68.08
2022-11-22T03:28:42.776Z,68.04
2022-11-22T03:31:30.531Z,67.74
2022-11-22T03:34:18.287Z,68.05
2022-11-22T03:37:05.921Z,68.17
2022-11-22T03:39:53.860Z,68.11
2022-11-22T03:42:41.453Z,68.06
2022-11-22T03:45:30.123Z,68.03
2022-11-22T03:48:18.277Z,68.19
2022-11-22T03:51:07.101Z,68.37
2022-11-22T03:53:54.683Z,68.53
2022-11-22T03:56:42.598Z,68.60
2022-11-22T03:59:30.411Z,68.49
2022-11-22T04:02:18.198Z,68.53
2022-11-22T04:05:06.260Z,68.49
2022-11-22T04:07:56.225Z,68.76
2022-11-22T04:10:43.934Z,68.78
2022-11-22T04:13:50.110Z,68.71
2022-11-22T04:16:37.744Z,68.49
2022-11-22T04:19:25.443Z,68.46
2022-11-22T04:22:13.071Z,68.53
2022-11-22T04:25:15.752Z,68.72
2022-11-22T04:28:04.661Z,68.73
2022-11-22T04:31:15.482Z,68.74
2022-11-22T04:34:03.237Z,68.63
2022-11-22T04:36:51.597Z,68.89
2022-11-22T04:39:40.413Z,68.97
2022-11-22T04:42:47.140Z,68.99
2022-11-22T06:30:19.126Z,70.52
2022-11-22T06:33:35.784Z,70.51
2022-11-22T06:40:27.702Z,70.57
2022-11-22T06:43:52.261Z,70.58
2022-11-22T06:47:27.680Z,70.79
2022-11-22T06:50:34.902Z,70.81
2022-11-22T06:53:58.102Z,70.86
2022-11-22T07:23:23.673Z,71.33
2022-11-22T07:26:59.586Z,71.31
2022-11-22T07:33:33.730Z,71.40
2022-11-22T07:40:01.756Z,71.21
2022-11-22T07:42:58.777Z,71.33
2022-11-22T07:45:52.303Z,71.34
2022-11-22T07:48:43.712Z,71.20
2022-11-22T07:51:33.939Z,71.34
2022-11-22T07:54:25.206Z,71.48
2022-11-22T07:57:14.316Z,71.50
2022-11-22T08:00:03.378Z,71.46
2022-11-22T08:02:55.021Z,71.59
2022-11-22T08:05:45.450Z,71.59
2022-11-22T08:08:36.342Z,71.67
2022-11-22T08:11:26.120Z,71.67
2022-11-22T08:14:15.291Z,71.69
2022-11-22T08:17:10.013Z,71.87
2022-11-22T08:20:02.165Z,71.90
2022-11-22T08:22:51.622Z,71.84
2022-11-22T08:25:40.108Z,71.93
2022-11-22T08:28:28.449Z,71.89
2022-11-22T08:31:19.928Z,71.90
2022-11-22T08:34:08.042Z,72.13
2022-11-22T08:36:56.589Z,72.03
2022-11-22T08:39:45.153Z,72.11
2022-11-22T08:42:33.509Z,72.16
2022-11-22T08:45:21.525Z,72.08
2022-11-22T08:48:09.835Z,72.29
2022-11-22T08:51:00.883Z,72.09
2022-11-22T08:53:49.728Z,72.23
2022-11-22T08:56:37.713Z,72.07
2022-11-22T08:59:25.551Z,72.10
2022-11-22T09:02:13.281Z,72.09
2022-11-22T09:05:00.895Z,71.92
2022-11-22T09:10:59.755Z,72.27
2022-11-22T09:13:48.067Z,71.92
2022-11-22T09:16:35.733Z,72.16
2022-11-22T09:19:23.435Z,72.07
2022-11-22T09:22:11.133Z,72.01
2022-11-22T09:24:58.809Z,72.05
2022-11-22T09:27:46.514Z,72.13
2022-11-22T09:30:34.170Z,72.05
2022-11-22T09:33:21.745Z,72.12
2022-11-22T09:36:23.576Z,72.18
2022-11-22T09:39:11.274Z,72.45
2022-11-22T09:42:22.631Z,72.28
2022-11-22T09:45:42.274Z,72.29
2022-11-22T09:48:45.409Z,72.36
2022-11-22T09:51:46.445Z,72.41
2022-11-22T09:54:46.601Z,72.34
2022-11-22T09:57:40.682Z,72.43
2022-11-22T10:00:30.269Z,72.30
2022-11-22T10:03:42.083Z,72.47
2022-11-22T10:06:34.607Z,72.35
2022-11-22T10:10:11.631Z,72.33
2022-11-22T10:13:11.694Z,72.69
2022-11-22T10:16:25.637Z,72.39
2022-11-22T10:19:41.419Z,72.41
2022-11-22T10:22:30.413Z,72.64
2022-11-22T10:25:27.774Z,72.51
2022-11-22T10:28:19.326Z,72.62
2022-11-22T10:31:17.724Z,72.38
2022-11-22T10:34:08.064Z,72.47
2022-11-22T10:37:16.153Z,72.41
2022-11-22T10:40:12.800Z,72.44
2022-11-22T10:43:28.307Z,72.34
2022-11-22T10:46:56.889Z,72.50
2022-11-22T10:50:09.028Z,72.44
2022-11-22T10:53:27.821Z,72.56
2022-11-22T10:56:24.707Z,72.53
2022-11-22T10:59:36.995Z,72.66
2022-11-22T11:02:36.958Z,72.69
2022-11-22T11:05:33.442Z,72.47
2022-11-22T11:08:41.999Z,72.76
2022-11-22T11:11:38.757Z,72.71
2022-11-22T11:14:46.224Z,72.60
2022-11-22T11:17:37.199Z,72.68
2022-11-22T11:20:34.668Z,72.80
2022-11-22T11:23:22.425Z,72.89
2022-11-22T11:26:16.105Z,72.91
2022-11-22T11:29:36.121Z,72.82
2022-11-22T11:32:25.459Z,72.96
2022-11-22T11:35:14.048Z,73.13
2022-11-22T11:38:01.631Z,73.34
2022-11-22T11:40:49.398Z,73.35
2022-11-22T11:43:43.195Z,73.30
2022-11-22T11:46:36.958Z,73.40
2022-11-22T11:49:30.196Z,73.40
2022-11-22T11:52:23.377Z,73.18
2022-11-22T11:55:17.084Z,73.19
2022-11-22T11:58:19.513Z,73.15
2022-11-22T12:01:12.440Z,73.25
2022-11-22T12:04:03.877Z,73.32
2022-11-22T12:07:02.975Z,73.41
2022-11-22T12:09:53.585Z,73.46
2022-11-22T12:12:48.607Z,73.50
2022-11-22T12:16:01.569Z,73.39
2022-11-22T12:18:58.965Z,73.35
2022-11-22T12:21:56.954Z,73.44
2022-11-22T12:25:24.759Z,73.59
2022-11-22T12:28:21.723Z,73.73
2022-11-22T12:31:28.410Z,73.84
2022-11-22T12:34:38.087Z,73.83
2022-11-22T12:37:40.363Z,73.68
2022-11-22T12:40:37.665Z,73.99
2022-11-22T12:43:28.255Z,73.92
2022-11-22T12:46:26.477Z,73.83
2022-11-22T12:49:28.987Z,73.91
2022-11-22T12:52:33.002Z,73.91
2022-11-22T12:55:25.197Z,73.77
2022-11-22T12:58:12.718Z,74.03
2022-11-22T13:01:15.810Z,74.09
2022-11-22T13:04:09.837Z,74.21
2022-11-22T13:07:22.422Z,74.08
2022-11-22T13:10:26.515Z,74.01
2022-11-22T13:13:23.329Z,73.87
2022-11-22T13:16:12.427Z,74.21
2022-11-22T13:19:06.300Z,74.05
2022-11-22T13:22:07.968Z,74.21
2022-11-22T13:25:17.361Z,74.10
2022-11-22T13:28:29.289Z,74.42
2022-11-22T13:31:25.132Z,74.26
2022-11-22T13:34:26.537Z,74.16
2022-11-22T13:37:16.888Z,74.16
2022-11-22T13:40:16.612Z,74.05
2022-11-22T13:43:17.985Z,74.21
2022-11-22T13:46:47.846Z,74.08
2022-11-22T13:49:47.904Z,74.17
2022-11-22T13:52:53.550Z,73.92
2022-11-22T13:55:42.694Z,73.97
2022-11-22T13:59:03.505Z,74.21
2022-11-22T14:01:51.964Z,74.10
2022-11-22T14:04:41.898Z,74.39
2022-11-22T14:07:34.328Z,73.90
2022-11-22T14:10:54.120Z,74.18
2022-11-22T14:14:06.092Z,74.08
2022-11-22T14:17:17.739Z,74.25
2022-11-22T14:20:32.448Z,73.93
2022-11-22T14:23:46.476Z,73.99
2022-11-22T14:26:41.724Z,73.96
2022-11-22T14:29:57.376Z,74.00
2022-11-22T14:33:01.761Z,74.05
2022-11-22T14:36:09.609Z,74.05
2022-11-22T14:38:57.536Z,73.97
2022-11-22T14:41:45.208Z,74.09
2022-11-22T14:44:35.480Z,74.06
2022-11-22T14:47:23.300Z,74.02
2022-11-22T14:50:18.724Z,74.02
2022-11-22T14:53:21.322Z,73.89
2022-11-22T14:56:22.824Z,73.98
2022-11-22T14:59:47.544Z,74.04
2022-11-22T15:02:58.413Z,74.01
2022-11-22T15:09:20.086Z,74.34
2022-11-22T15:09:48.823Z,74.17
2022-11-22T15:13:31.524Z,74.17
